Latest Coastal Weather Observations for Whyalla

IDS60701

Issued at 3:51 am CST Friday 3 July 2015 (issued every 10 minutes, with the page automatically refreshed every 10 minutes)

About coastal observations | Map of coastal stations | Coastal observations for SA | Marine services | Other Formats
Station Details ID: 018120 Name: WHYALLA AERO Lat: -33.05 Lon: 137.52 Height: 6.5 m
Data from the previous 72 hours. | See also: Recent months at Whyalla
Date/Time
CST
Temp

°C
Wind Pressure Rain
since 9am
mm
Weather Cloud Vis
km
Sea
Height
m
Swell
Dir
 
Speed
knots
Gust
knots
hPa Trend Height
m
Period
s
Dir
03/03:30am 5.9 W 4 5 1028.4 - 0.0 - Cloudy 10 - - - -
03/03:00am 4.7 WNW 4 5 1028.4 - 0.0 - Cloudy 10 - - - -
03/02:30am 4.3 NW 4 5 1028.5 - 0.0 - Partly cloudy 10 - - - -
03/02:00am 4.6 WNW 4 5 1028.8 - 0.0 - - 10 - - - -
03/01:30am 5.0 NW 6 6 1028.9 - 0.0 - - 8 - - - -
03/01:00am 5.5 NNW 5 6 1029.1 - 0.0 - - 7 - - - -
03/12:30am 5.8 W 3 4 1029.4 - 0.0 - - 9 - - - -
03/12:00am 6.2 WNW 4 5 1029.7 - 0.0 - - 8 - - - -
 
Date/Time
CST
Temp

°C
Wind Pressure Rain
since 9am
mm
Weather Cloud Vis
km
Sea
Height
m
Swell
Dir
 
Speed
knots
Gust
knots
hPa Trend Height
m
Period
s
Dir
02/11:30pm 7.1 WSW 4 5 1029.8 - 0.0 - Partly cloudy 10 - - - -
02/11:06pm 6.8 W 5 6 1029.9 - 0.0 - Partly cloudy 8 - - - -
02/11:00pm 6.5 WNW 5 5 1029.9 - 0.0 - Partly cloudy 7 - - - -
02/10:40pm 6.8 NW 5 6 1030.0 - 0.0 - - 5 - - - -
02/10:30pm 6.8 NW 5 6 1029.9 - 0.0 - - 6 - - - -
02/10:13pm 6.9 NW 5 6 1030.0 - 0.0 - - 6 - - - -
02/10:00pm 7.2 NW 5 6 1030.1 - 0.0 - - 5 - - - -
02/09:30pm 8.6 CALM 0 3 1029.8 - 0.0 - Partly cloudy 5 - - - -
02/09:26pm 8.3 WSW 1 3 1029.7 - 0.0 - Partly cloudy 5 - - - -
02/09:08pm 8.5 SW 5 8 1029.8 - 0.0 - Partly cloudy 0.3 - - - -
02/09:00pm 8.5 S 3 4 1029.7 - 0.0 - - 0.3 - - - -
02/08:30pm 9.7 S 1 3 1029.7 - 0.0 - Partly cloudy 3 - - - -
02/08:29pm 9.7 S 1 3 1029.7 - 0.0 - - 4 - - - -
02/08:00pm 10.3 S 5 6 1029.6 - 0.0 - Partly cloudy 9 - - - -
02/07:30pm 10.2 SSW 4 5 1029.6 - 0.0 - Partly cloudy 10 - - - -
02/07:00pm 11.0 CALM 0 0 1029.3 - 0.0 - - 10 - - - -
02/06:50pm 11.6 CALM 0 0 1029.3 - 0.0 - Partly cloudy 10 - - - -
02/06:30pm 12.1 SSE 3 4 1029.2 - 0.0 - Partly cloudy 10 - - - -
02/06:00pm 12.9 S 4 6 1029.2 - 0.0 - Mostly cloudy 10 - - - -
02/05:30pm 12.7 SSE 4 7 1029.1 - 0.0 - Partly cloudy 10 - - - -
02/05:24pm 12.6 SSE 3 5 1029.0 - 0.0 - Partly cloudy 10 - - - -
02/05:00pm 13.1 ESE 5 7 1028.7 - 0.0 - - 10 - - - -
02/04:30pm 13.7 ESE 5 7 1028.7 - 0.0 - - 10 - - - -
02/04:00pm 14.2 ESE 7 9 1028.5 - 0.0 - - 10 - - - -
02/03:30pm 14.2 ESE 7 10 1028.5 - 0.0 - - 10 - - - -
02/03:00pm 14.6 SE 7 9 1028.5 - 0.0 - - 10 - - - -
02/02:30pm 15.2 SE 7 10 1028.4 - 0.0 - - 10 - - - -
02/02:00pm 16.2 SE 7 11 1028.6 - 0.0 - - 10 - - - -
02/01:30pm 16.2 ESE 7 11 1028.8 - 0.0 - - 10 - - - -
02/01:00pm 16.6 SSW 6 11 1029.1 - 0.0 - - 10 - - - -
02/12:30pm 16.7 WSW 6 11 1029.5 - 0.0 - - 10 - - - -
02/12:00pm 15.8 S 5 8 1029.9 - 0.0 - - 10 - - - -
02/11:30am 15.9 SW 5 7 1030.0 - 0.0 - - 10 - - - -
02/11:00am 15.7 NNW 3 6 1030.7 - 0.0 - - 10 - - - -
02/10:30am 13.7 NNW 5 7 1030.6 - 0.0 - - 10 - - - -
02/10:00am 12.8 NNW 5 7 1030.3 - 0.0 - - 10 - - - -
02/09:30am 11.1 N 5 7 1030.0 - 0.0 - - 10 - - - -
02/09:00am 9.4 NNW 5 7 1030.0 - 0.0 - - 10 - - - -
02/08:30am 7.5 N 6 7 1029.7 - 0.0 - - 10 - - - -
02/08:00am 6.1 NNW 6 7 1029.5 - 0.0 - - 10 - - - -
02/07:30am 4.7 NNW 4 6 1029.2 - 0.0 - - 10 - - - -
02/07:00am 4.1 NNW 5 6 1029.1 - 0.0 - - 10 - - - -
02/06:30am 4.9 NNW 5 5 1028.9 - 0.0 - - 10 - - - -
02/06:00am 5.6 NNW 5 6 1028.7 - 0.0 - - 10 - - - -
02/05:30am 6.0 NNW 4 6 1028.5 - 0.0 - - 10 - - - -
02/05:00am 7.1 NNW 3 4 1028.5 - 0.0 - Cloudy 10 - - - -
02/04:30am 7.4 N 3 4 1028.4 - 0.0 - Partly cloudy 10 - - - -
02/04:00am 7.4 NW 5 5 1028.1 - 0.0 - Partly cloudy 10 - - - -
02/03:30am 7.2 NNW 1 4 1028.3 - 0.0 - Partly cloudy 10 - - - -
02/03:00am 7.2 NNW 4 5 1028.2 - 0.0 - Cloudy 10 - - - -
02/02:30am 7.1 NNW 5 6 1028.5 - 0.0 - Partly cloudy 10 - - - -
02/02:00am 7.0 NNW 5 5 1028.5 - 0.0 - Partly cloudy 10 - - - -
02/01:30am 6.8 NNW 4 5 1028.7 - 0.0 - Partly cloudy 10 - - - -
02/01:00am 6.7 NNW 5 6 1028.7 - 0.0 - Cloudy 10 - - - -
02/12:30am 6.7 NNW 5 6 1028.9 - 0.0 - Partly cloudy 10 - - - -
02/12:00am 6.7 NW 4 5 1029.0 - 0.0 - Mostly cloudy 10 - - - -
 
Date/Time
CST
Temp

°C
Wind Pressure Rain
since 9am
mm
Weather Cloud Vis
km
Sea
Height
m
Swell
Dir
 
Speed
knots
Gust
knots
hPa Trend Height
m
Period
s
Dir
01/11:30pm 6.5 NW 4 5 1029.2 - 0.0 - Cloudy 10 - - - -
01/11:00pm 6.3 NW 4 5 1029.2 - 0.0 - Cloudy 10 - - - -
01/10:30pm 6.0 NW 5 6 1029.1 - 0.0 - Partly cloudy 10 - - - -
01/10:00pm 5.9 WNW 5 6 1029.0 - 0.0 - - 10 - - - -
01/09:30pm 6.3 NW 4 5 1029.2 - 0.0 - - 10 - - - -
01/09:00pm 6.5 NW 4 5 1028.9 - 0.0 - Mostly cloudy 10 - - - -
01/08:30pm 6.9 SW 4 5 1029.1 - 0.0 - - 10 - - - -
01/08:00pm 7.6 SSW 3 4 1028.7 - 0.0 - - 10 - - - -
01/07:30pm 8.0 S 5 6 1028.3 - 0.0 - - 10 - - - -
01/07:00pm 8.0 SSW 4 5 1028.3 - 0.0 - - 10 - - - -
01/06:30pm 9.0 S 5 6 1027.9 - 0.0 - - 10 - - - -
01/06:00pm 10.2 SSE 5 5 1027.6 - 0.0 - Mostly cloudy 10 - - - -
01/05:30pm 10.8 SE 5 6 1027.6 - 0.0 - - 10 - - - -
01/05:00pm 12.6 CALM 0 0 1027.3 - 0.0 - - 10 - - - -
01/04:30pm 13.3 CALM 0 0 1027.2 - 0.0 - - 10 - - - -
01/04:00pm 14.0 WNW 3 4 1027.6 - 0.0 - - 10 - - - -
01/03:30pm 14.0 WSW 5 7 1027.4 - 0.0 - - 10 - - - -
01/03:00pm 14.0 NW 4 7 1027.0 - 0.0 - - 10 - - - -
01/02:30pm 14.7 WNW 5 7 1027.3 - 0.0 - - 10 - - - -
01/02:00pm 14.3 NW 6 10 1027.5 - 0.0 - - 10 - - - -
01/01:30pm 14.2 NW 7 9 1028.0 - 0.0 - - 10 - - - -
01/01:00pm 13.2 NNW 9 11 1028.7 - 0.0 - - 10 - - - -
01/12:30pm 13.3 NW 9 12 1028.7 - 0.0 - - 10 - - - -
01/12:00pm 12.7 NNW 8 11 1029.4 - 0.0 - - 10 - - - -
01/11:30am 12.4 NNW 8 10 1030.4 - 0.0 - - 10 - - - -
01/11:00am 12.5 NNW 7 10 1030.6 - 0.0 - - 10 - - - -
01/10:30am 11.1 N 5 7 1031.0 - 0.0 - - 10 - - - -
01/10:00am 9.1 NNW 6 7 1030.8 - 0.0 - - 10 - - - -
01/09:30am 7.1 NW 3 5 1030.9 - 0.0 - - 10 - - - -
01/09:00am 4.9 NW 4 5 1030.6 - 0.2 - - 10 - - - -
01/08:30am 3.0 NW 5 6 1030.3 - 0.2 - - 10 - - - -
01/08:00am 1.2 NNW 5 7 1030.2 - 0.2 - - 10 - - - -
01/07:30am 0.3 NNW 6 7 1030.2 - 0.2 - - 10 - - - -
01/07:00am 0.3 NW 6 7 1030.0 - 0.2 - - 10 - - - -
01/06:30am 0.4 NW 6 7 1029.7 - 0.2 - - 10 - - - -
01/06:00am 0.1 NW 5 6 1029.2 - 0.2 Recent precip. - 10 - - - -
01/05:30am 0.3 NW 5 7 1029.3 - 0.0 - - 10 - - - -
01/05:00am 0.4 NNW 5 6 1028.9 - 0.0 - - 10 - - - -
01/04:30am 0.8 NNW 5 6 1028.9 - 0.0 - - 10 - - - -
01/04:00am 0.7 NW 5 7 1029.2 - 0.0 - - 10 - - - -
01/03:30am 0.8 NW 5 6 1029.5 - 0.0 - - 10 - - - -
01/03:00am 1.3 NW 5 6 1029.5 - 0.0 - - 10 - - - -
01/02:30am 1.3 NNW 6 7 1029.5 - 0.0 - - 10 - - - -
01/02:00am 1.6 NW 5 6 1029.5 - 0.0 - - 10 - - - -
01/01:30am 1.7 NNW 3 5 1029.4 - 0.0 - - 10 - - - -
01/01:00am 2.3 WSW 4 5 1029.6 - 0.0 - - 10 - - - -
01/12:30am 1.9 WNW 4 5 1029.9 - 0.0 - - 10 - - - -
01/12:00am 2.8 WSW 5 7 1029.8 - 0.0 - - 10 - - - -
 
Date/Time
CST
Temp

°C
Wind Pressure Rain
since 9am
mm
Weather Cloud Vis
km
Sea
Height
m
Swell
Dir
 
Speed
knots
Gust
knots
hPa Trend Height
m
Period
s
Dir
30/11:30pm 2.3 WNW 5 5 1029.8 - 0.0 - - 10 - - - -
30/11:00pm 3.3 W 1 5 1029.9 - 0.0 - - 10 - - - -
30/10:30pm 3.9 CALM 0 4 1030.2 - 0.0 - - 10 - - - -
30/10:00pm 3.5 W 4 5 1030.1 - 0.0 - - 10 - - - -
30/09:30pm 4.2 WNW 4 5 1030.6 - 0.0 - - 10 - - - -
30/09:00pm 4.6 WSW 4 5 1030.3 - 0.0 - - 10 - - - -
30/08:30pm 4.4 SW 4 5 1030.5 - 0.0 - - 10 - - - -
30/08:00pm 5.2 SSW 4 4 1030.4 - 0.0 - - 10 - - - -
30/07:30pm 6.3 SSW 3 5 1030.2 - 0.0 - - 10 - - - -
30/07:00pm 6.6 SSW 4 5 1030.3 - 0.0 - - 10 - - - -
30/06:30pm 7.1 SSW 4 5 1029.8 - 0.0 - - 10 - - - -
30/06:00pm 8.6 SSW 4 5 1029.5 - 0.0 - - 10 - - - -
30/05:30pm 9.9 S 5 5 1029.2 - 0.0 - - 10 - - - -
30/05:00pm 11.4 S 5 7 1028.8 - 0.0 - - 10 - - - -
30/04:30pm 12.1 SSE 5 7 1028.8 - 0.0 - - 10 - - - -
30/04:00pm 12.4 SE 5 7 1028.6 - 0.0 - - 10 - - - -
30/03:30pm 12.5 SE 5 7 1028.4 - 0.0 - - 10 - - - -
30/03:00pm 12.7 SSE 6 8 1028.4 - 0.0 - - 10 - - - -
30/02:30pm 12.6 SSE 6 9 1028.6 - 0.0 - - 10 - - - -
30/02:00pm 12.7 SE 7 9 1028.6 - 0.0 - - 10 - - - -
30/01:30pm 12.5 SSE 7 9 1028.9 - 0.0 - - 10 - - - -
30/01:00pm 12.3 SE 6 9 1029.3 - 0.0 - - 10 - - - -
30/12:30pm 11.9 SSE 7 10 1029.8 - 0.0 - - 10 - - - -
30/12:00pm 12.1 S 7 11 1030.2 - 0.0 - - 10 - - - -
30/11:30am 12.1 S 7 9 1030.6 - 0.0 - - 10 - - - -
30/11:00am 11.7 S 7 10 1030.9 - 0.0 - - 10 - - - -
30/10:30am 11.1 S 7 10 1031.2 - 0.0 - - 10 - - - -
30/10:00am 10.3 SSW 7 9 1031.1 - 0.0 - - 10 - - - -
30/09:30am 8.2 WSW 2 5 1030.9 - 0.0 - - 10 - - - -
30/09:00am 6.0 NW 4 5 1030.5 - 0.0 - - 10 - - - -
30/08:30am 3.2 NW 5 6 1030.4 - 0.0 - - 10 - - - -
30/08:00am 1.2 NW 6 7 1030.1 - 0.0 - - 10 - - - -
30/07:30am 0.6 NW 6 8 1029.8 - 0.0 - - 10 - - - -
30/07:00am 0.9 NW 6 7 1029.2 - 0.0 - - 10 - - - -
30/06:30am 1.1 NW 7 7 1029.0 - 0.0 - - 10 - - - -
30/06:00am 1.1 NW 5 6 1028.8 - 0.0 - - 10 - - - -
30/05:30am 1.1 NNW 5 6 1028.7 - 0.0 - - 10 - - - -
30/05:00am 1.0 NNW 6 7 1028.6 - 0.0 - - 10 - - - -
30/04:30am 1.4 NW 5 6 1028.6 - 0.0 - - 10 - - - -
30/04:00am 1.6 NNW 6 7 1028.6 - 0.0 - - 10 - - - -

Other Formats:

Comma delimited format used in spreadsheet applications
http://www.bom.gov.au/fwo/IDS60701/IDS60701.95664.axf

JavaScript Object Notation format (JSON) in row-major order
http://www.bom.gov.au/fwo/IDS60701/IDS60701.95664.json